sensor_id;sensor_type;location;lat;lon;timestamp;temperature;humidity
21298;DHT22;10808;48.010;11.326;2023-04-29T00:00:05;11.70;99.90
21298;DHT22;10808;48.010;11.326;2023-04-29T00:02:31;11.70;99.90
21298;DHT22;10808;48.010;11.326;2023-04-29T00:04:58;11.60;99.90
21298;DHT22;10808;48.010;11.326;2023-04-29T00:07:24;11.60;99.90
21298;DHT22;10808;48.010;11.326;2023-04-29T00:09:50;11.70;99.90
21298;DHT22;10808;48.010;11.326;2023-04-29T00:12:16;11.70;99.90
21298;DHT22;10808;48.010;11.326;2023-04-29T00:14:42;11.60;99.90
21298;DHT22;10808;48.010;11.326;2023-04-29T00:17:08;11.60;99.90
21298;DHT22;10808;48.010;11.326;2023-04-29T00:19:34;11.50;99.90
21298;DHT22;10808;48.010;11.326;2023-04-29T00:22:00;11.60;99.90
21298;DHT22;10808;48.010;11.326;2023-04-29T00:24:27;11.50;99.90
21298;DHT22;10808;48.010;11.326;2023-04-29T00:26:53;11.50;99.90
21298;DHT22;10808;48.010;11.326;2023-04-29T00:29:19;11.50;99.90
21298;DHT22;10808;48.010;11.326;2023-04-29T00:31:45;11.50;99.90
21298;DHT22;10808;48.010;11.326;2023-04-29T00:34:11;11.40;99.90
21298;DHT22;10808;48.010;11.326;2023-04-29T00:36:37;11.40;99.90
21298;DHT22;10808;48.010;11.326;2023-04-29T00:39:03;11.40;99.90
21298;DHT22;10808;48.010;11.326;2023-04-29T00:41:29;11.40;99.90
21298;DHT22;10808;48.010;11.326;2023-04-29T00:43:56;11.40;99.90
21298;DHT22;10808;48.010;11.326;2023-04-29T00:46:22;11.30;99.90
21298;DHT22;10808;48.010;11.326;2023-04-29T00:48:49;11.30;99.90
21298;DHT22;10808;48.010;11.326;2023-04-29T00:51:15;11.30;99.90
21298;DHT22;10808;48.010;11.326;2023-04-29T00:53:42;11.30;99.90
21298;DHT22;10808;48.010;11.326;2023-04-29T00:56:09;11.30;99.90
21298;DHT22;10808;48.010;11.326;2023-04-29T00:58:35;11.20;99.90
21298;DHT22;10808;48.010;11.326;2023-04-29T01:01:04;11.20;99.90
21298;DHT22;10808;48.010;11.326;2023-04-29T01:03:30;11.20;99.90
21298;DHT22;10808;48.010;11.326;2023-04-29T01:06:20;11.20;99.90
21298;DHT22;10808;48.010;11.326;2023-04-29T01:09:26;11.10;99.90
21298;DHT22;10808;48.010;11.326;2023-04-29T01:12:19;11.10;99.90
21298;DHT22;10808;48.010;11.326;2023-04-29T01:14:58;11.10;99.90
21298;DHT22;10808;48.010;11.326;2023-04-29T01:17:30;11.10;99.90
21298;DHT22;10808;48.010;11.326;2023-04-29T01:19:59;11.10;99.90
21298;DHT22;10808;48.010;11.326;2023-04-29T01:22:26;11.10;99.90
21298;DHT22;10808;48.010;11.326;2023-04-29T01:24:52;11.10;99.90
21298;DHT22;10808;48.010;11.326;2023-04-29T01:27:46;11.10;99.90
21298;DHT22;10808;48.010;11.326;2023-04-29T01:30:36;11.10;99.90
21298;DHT22;10808;48.010;11.326;2023-04-29T01:33:27;11.00;99.90
21298;DHT22;10808;48.010;11.326;2023-04-29T01:36:19;11.10;99.90
21298;DHT22;10808;48.010;11.326;2023-04-29T01:39:13;11.10;99.90
21298;DHT22;10808;48.010;11.326;2023-04-29T01:41:52;11.10;99.90
21298;DHT22;10808;48.010;11.326;2023-04-29T01:44:23;11.10;99.90
21298;DHT22;10808;48.010;11.326;2023-04-29T01:46:52;11.20;99.90
21298;DHT22;10808;48.010;11.326;2023-04-29T01:49:20;11.20;99.90
21298;DHT22;10808;48.010;11.326;2023-04-29T01:51:47;11.20;99.90
21298;DHT22;10808;48.010;11.326;2023-04-29T01:54:13;11.20;99.90
21298;DHT22;10808;48.010;11.326;2023-04-29T01:56:39;11.20;99.90
21298;DHT22;10808;48.010;11.326;2023-04-29T01:59:05;11.20;99.90
21298;DHT22;10808;48.010;11.326;2023-04-29T02:01:31;11.20;99.90
21298;DHT22;10808;48.010;11.326;2023-04-29T02:03:57;11.30;99.90
21298;DHT22;10808;48.010;11.326;2023-04-29T02:06:23;11.30;99.90
21298;DHT22;10808;48.010;11.326;2023-04-29T02:08:49;11.30;99.90
21298;DHT22;10808;48.010;11.326;2023-04-29T02:11:15;11.30;99.90
21298;DHT22;10808;48.010;11.326;2023-04-29T02:13:41;11.30;99.90
21298;DHT22;10808;48.010;11.326;2023-04-29T02:16:12;11.30;99.90
21298;DHT22;10808;48.010;11.326;2023-04-29T02:18:38;11.30;99.90
21298;DHT22;10808;48.010;11.326;2023-04-29T02:21:05;11.30;99.90
21298;DHT22;10808;48.010;11.326;2023-04-29T02:23:35;11.30;99.90
21298;DHT22;10808;48.010;11.326;2023-04-29T02:26:01;11.30;99.90
21298;DHT22;10808;48.010;11.326;2023-04-29T02:28:30;11.30;99.90
21298;DHT22;10808;48.010;11.326;2023-04-29T02:30:56;11.30;99.90
21298;DHT22;10808;48.010;11.326;2023-04-29T02:33:22;11.30;99.90
21298;DHT22;10808;48.010;11.326;2023-04-29T02:35:48;11.30;99.90
21298;DHT22;10808;48.010;11.326;2023-04-29T02:38:14;11.30;99.90
21298;DHT22;10808;48.010;11.326;2023-04-29T02:40:45;11.30;99.90
21298;DHT22;10808;48.010;11.326;2023-04-29T02:43:11;11.30;99.90
21298;DHT22;10808;48.010;11.326;2023-04-29T02:45:38;11.30;99.90
21298;DHT22;10808;48.010;11.326;2023-04-29T02:48:05;11.30;99.90
21298;DHT22;10808;48.010;11.326;2023-04-29T02:50:31;11.30;99.90
21298;DHT22;10808;48.010;11.326;2023-04-29T02:52:57;11.30;99.90
21298;DHT22;10808;48.010;11.326;2023-04-29T02:55:24;11.30;99.90
21298;DHT22;10808;48.010;11.326;2023-04-29T02:57:50;11.30;99.90
21298;DHT22;10808;48.010;11.326;2023-04-29T03:00:16;11.30;99.90
21298;DHT22;10808;48.010;11.326;2023-04-29T03:02:42;11.40;99.90
21298;DHT22;10808;48.010;11.326;2023-04-29T03:05:08;11.40;99.90
21298;DHT22;10808;48.010;11.326;2023-04-29T03:07:34;11.30;99.90
21298;DHT22;10808;48.010;11.326;2023-04-29T03:10:00;11.30;99.90
21298;DHT22;10808;48.010;11.326;2023-04-29T03:12:26;11.40;99.90
21298;DHT22;10808;48.010;11.326;2023-04-29T03:14:52;11.40;99.90
21298;DHT22;10808;48.010;11.326;2023-04-29T03:17:18;11.30;99.90
21298;DHT22;10808;48.010;11.326;2023-04-29T03:19:44;11.40;99.90
21298;DHT22;10808;48.010;11.326;2023-04-29T03:22:10;11.40;99.90
21298;DHT22;10808;48.010;11.326;2023-04-29T03:24:37;11.40;99.90
21298;DHT22;10808;48.010;11.326;2023-04-29T03:27:04;11.40;99.90
21298;DHT22;10808;48.010;11.326;2023-04-29T03:29:30;11.30;99.90
21298;DHT22;10808;48.010;11.326;2023-04-29T03:31:57;11.40;99.90
21298;DHT22;10808;48.010;11.326;2023-04-29T03:34:23;11.40;99.90
21298;DHT22;10808;48.010;11.326;2023-04-29T03:36:49;11.40;99.90
21298;DHT22;10808;48.010;11.326;2023-04-29T03:39:19;11.40;99.90
21298;DHT22;10808;48.010;11.326;2023-04-29T03:41:46;11.40;99.90
21298;DHT22;10808;48.010;11.326;2023-04-29T03:44:12;11.50;99.90
21298;DHT22;10808;48.010;11.326;2023-04-29T03:46:38;11.50;99.90
21298;DHT22;10808;48.010;11.326;2023-04-29T03:49:04;11.60;99.90
21298;DHT22;10808;48.010;11.326;2023-04-29T03:51:30;11.60;99.90
21298;DHT22;10808;48.010;11.326;2023-04-29T03:53:56;11.70;99.90
21298;DHT22;10808;48.010;11.326;2023-04-29T03:56:23;11.70;99.90
21298;DHT22;10808;48.010;11.326;2023-04-29T03:58:53;11.70;99.90
21298;DHT22;10808;48.010;11.326;2023-04-29T04:01:19;11.70;99.90
21298;DHT22;10808;48.010;11.326;2023-04-29T04:03:45;11.70;99.90
21298;DHT22;10808;48.010;11.326;2023-04-29T04:06:11;11.70;99.90
21298;DHT22;10808;48.010;11.326;2023-04-29T04:08:37;11.70;99.90
21298;DHT22;10808;48.010;11.326;2023-04-29T04:11:05;11.70;99.90
21298;DHT22;10808;48.010;11.326;2023-04-29T04:13:31;11.70;99.90
21298;DHT22;10808;48.010;11.326;2023-04-29T04:15:58;11.70;99.90
21298;DHT22;10808;48.010;11.326;2023-04-29T04:18:24;11.70;99.90
21298;DHT22;10808;48.010;11.326;2023-04-29T04:20:50;11.70;99.90
21298;DHT22;10808;48.010;11.326;2023-04-29T04:23:16;11.70;99.90
21298;DHT22;10808;48.010;11.326;2023-04-29T04:25:46;11.70;99.90
21298;DHT22;10808;48.010;11.326;2023-04-29T04:28:12;11.70;99.90
21298;DHT22;10808;48.010;11.326;2023-04-29T04:30:39;11.70;99.90
21298;DHT22;10808;48.010;11.326;2023-04-29T04:33:05;11.70;99.90
21298;DHT22;10808;48.010;11.326;2023-04-29T04:35:31;11.70;99.90
21298;DHT22;10808;48.010;11.326;2023-04-29T04:37:57;11.80;99.90
21298;DHT22;10808;48.010;11.326;2023-04-29T04:40:23;11.80;99.90
21298;DHT22;10808;48.010;11.326;2023-04-29T04:42:49;11.80;99.90
21298;DHT22;10808;48.010;11.326;2023-04-29T04:45:15;11.80;99.90
21298;DHT22;10808;48.010;11.326;2023-04-29T04:47:42;11.80;99.90
21298;DHT22;10808;48.010;11.326;2023-04-29T04:50:08;11.80;99.90
21298;DHT22;10808;48.010;11.326;2023-04-29T04:52:34;11.80;99.90
21298;DHT22;10808;48.010;11.326;2023-04-29T04:55:00;11.80;99.90
21298;DHT22;10808;48.010;11.326;2023-04-29T04:57:26;11.90;99.90
21298;DHT22;10808;48.010;11.326;2023-04-29T04:59:52;11.90;99.90
21298;DHT22;10808;48.010;11.326;2023-04-29T05:02:18;12.00;99.90
21298;DHT22;10808;48.010;11.326;2023-04-29T05:04:44;12.00;99.90
21298;DHT22;10808;48.010;11.326;2023-04-29T05:07:10;12.00;99.90
21298;DHT22;10808;48.010;11.326;2023-04-29T05:09:36;12.10;99.90
21298;DHT22;10808;48.010;11.326;2023-04-29T05:12:03;12.20;99.90
21298;DHT22;10808;48.010;11.326;2023-04-29T05:14:29;12.20;99.90
21298;DHT22;10808;48.010;11.326;2023-04-29T05:16:59;12.30;99.90
21298;DHT22;10808;48.010;11.326;2023-04-29T05:19:25;12.30;99.90
21298;DHT22;10808;48.010;11.326;2023-04-29T05:21:51;12.40;99.90
21298;DHT22;10808;48.010;11.326;2023-04-29T05:24:17;12.50;99.90
21298;DHT22;10808;48.010;11.326;2023-04-29T05:26:43;12.60;99.90
21298;DHT22;10808;48.010;11.326;2023-04-29T05:29:10;12.60;99.90
21298;DHT22;10808;48.010;11.326;2023-04-29T05:31:36;12.70;99.90
21298;DHT22;10808;48.010;11.326;2023-04-29T05:34:06;12.70;99.90
21298;DHT22;10808;48.010;11.326;2023-04-29T05:36:32;12.80;99.90
21298;DHT22;10808;48.010;11.326;2023-04-29T05:38:58;12.90;99.90
21298;DHT22;10808;48.010;11.326;2023-04-29T05:41:24;13.00;99.90
21298;DHT22;10808;48.010;11.326;2023-04-29T05:43:50;13.00;99.90
21298;DHT22;10808;48.010;11.326;2023-04-29T05:46:16;13.10;99.90
21298;DHT22;10808;48.010;11.326;2023-04-29T05:48:43;13.20;99.90
21298;DHT22;10808;48.010;11.326;2023-04-29T05:51:09;13.30;99.90
21298;DHT22;10808;48.010;11.326;2023-04-29T05:53:35;13.40;99.90
21298;DHT22;10808;48.010;11.326;2023-04-29T05:56:03;13.40;99.90
21298;DHT22;10808;48.010;11.326;2023-04-29T05:58:34;13.50;99.90
21298;DHT22;10808;48.010;11.326;2023-04-29T06:01:00;13.50;99.90
21298;DHT22;10808;48.010;11.326;2023-04-29T06:03:26;13.60;99.90
21298;DHT22;10808;48.010;11.326;2023-04-29T06:05:52;13.60;99.90
21298;DHT22;10808;48.010;11.326;2023-04-29T06:08:18;13.60;99.90
21298;DHT22;10808;48.010;11.326;2023-04-29T06:10:45;13.70;99.90
21298;DHT22;10808;48.010;11.326;2023-04-29T06:13:11;13.70;99.90
21298;DHT22;10808;48.010;11.326;2023-04-29T06:15:37;13.70;99.90
21298;DHT22;10808;48.010;11.326;2023-04-29T06:18:03;13.70;99.90
21298;DHT22;10808;48.010;11.326;2023-04-29T06:20:29;13.80;99.90
21298;DHT22;10808;48.010;11.326;2023-04-29T06:22:55;13.90;99.90
21298;DHT22;10808;48.010;11.326;2023-04-29T06:25:21;14.00;99.90
21298;DHT22;10808;48.010;11.326;2023-04-29T06:27:47;14.10;99.90
21298;DHT22;10808;48.010;11.326;2023-04-29T06:30:14;14.20;99.90
21298;DHT22;10808;48.010;11.326;2023-04-29T06:32:40;14.30;99.90
21298;DHT22;10808;48.010;11.326;2023-04-29T06:35:06;14.30;99.90
21298;DHT22;10808;48.010;11.326;2023-04-29T06:37:32;14.40;99.90
21298;DHT22;10808;48.010;11.326;2023-04-29T06:39:59;14.50;99.90
21298;DHT22;10808;48.010;11.326;2023-04-29T06:42:25;14.60;99.90
21298;DHT22;10808;48.010;11.326;2023-04-29T06:44:51;14.60;99.90
21298;DHT22;10808;48.010;11.326;2023-04-29T06:47:17;14.70;99.90
21298;DHT22;10808;48.010;11.326;2023-04-29T06:49:43;14.80;99.90
21298;DHT22;10808;48.010;11.326;2023-04-29T06:52:09;14.80;99.90
21298;DHT22;10808;48.010;11.326;2023-04-29T06:54:35;14.80;99.90
21298;DHT22;10808;48.010;11.326;2023-04-29T06:57:01;14.90;99.90
21298;DHT22;10808;48.010;11.326;2023-04-29T06:59:27;15.00;99.90
21298;DHT22;10808;48.010;11.326;2023-04-29T07:01:53;15.00;99.90
21298;DHT22;10808;48.010;11.326;2023-04-29T07:04:19;15.00;99.90
21298;DHT22;10808;48.010;11.326;2023-04-29T07:06:45;15.10;99.90
21298;DHT22;10808;48.010;11.326;2023-04-29T07:09:12;15.10;99.90
21298;DHT22;10808;48.010;11.326;2023-04-29T07:11:41;15.20;99.90
21298;DHT22;10808;48.010;11.326;2023-04-29T07:14:07;15.40;99.90
21298;DHT22;10808;48.010;11.326;2023-04-29T07:16:33;15.60;99.90
21298;DHT22;10808;48.010;11.326;2023-04-29T07:18:59;15.70;99.90
21298;DHT22;10808;48.010;11.326;2023-04-29T07:21:26;15.70;99.90
21298;DHT22;10808;48.010;11.326;2023-04-29T07:23:52;15.70;99.90
21298;DHT22;10808;48.010;11.326;2023-04-29T07:26:20;15.90;99.90
21298;DHT22;10808;48.010;11.326;2023-04-29T07:28:47;15.90;99.90
21298;DHT22;10808;48.010;11.326;2023-04-29T07:31:14;16.00;99.90
21298;DHT22;10808;48.010;11.326;2023-04-29T07:33:40;16.10;99.90
21298;DHT22;10808;48.010;11.326;2023-04-29T07:36:06;16.20;99.90
21298;DHT22;10808;48.010;11.326;2023-04-29T07:38:32;16.20;99.90
21298;DHT22;10808;48.010;11.326;2023-04-29T07:40:59;16.20;99.90
21298;DHT22;10808;48.010;11.326;2023-04-29T07:43:25;16.30;99.90
21298;DHT22;10808;48.010;11.326;2023-04-29T07:45:51;16.50;99.90
21298;DHT22;10808;48.010;11.326;2023-04-29T07:48:17;16.70;99.90
21298;DHT22;10808;48.010;11.326;2023-04-29T07:50:43;16.90;99.90
21298;DHT22;10808;48.010;11.326;2023-04-29T07:53:09;17.20;99.90
21298;DHT22;10808;48.010;11.326;2023-04-29T07:55:37;17.40;99.90
21298;DHT22;10808;48.010;11.326;2023-04-29T07:58:03;17.50;99.90
21298;DHT22;10808;48.010;11.326;2023-04-29T08:00:29;17.70;99.90
21298;DHT22;10808;48.010;11.326;2023-04-29T08:02:55;17.80;99.90
21298;DHT22;10808;48.010;11.326;2023-04-29T08:05:22;18.00;99.90
21298;DHT22;10808;48.010;11.326;2023-04-29T08:07:51;18.10;99.90
21298;DHT22;10808;48.010;11.326;2023-04-29T08:10:18;18.10;99.90
21298;DHT22;10808;48.010;11.326;2023-04-29T08:12:47;18.40;99.90
21298;DHT22;10808;48.010;11.326;2023-04-29T08:15:14;18.60;99.90
21298;DHT22;10808;48.010;11.326;2023-04-29T08:17:40;18.70;99.90
21298;DHT22;10808;48.010;11.326;2023-04-29T08:20:07;18.70;99.90
21298;DHT22;10808;48.010;11.326;2023-04-29T08:22:34;18.80;99.90
21298;DHT22;10808;48.010;11.326;2023-04-29T08:25:00;18.70;99.90
21298;DHT22;10808;48.010;11.326;2023-04-29T08:27:27;18.70;99.90
21298;DHT22;10808;48.010;11.326;2023-04-29T08:29:53;18.70;99.90
21298;DHT22;10808;48.010;11.326;2023-04-29T08:32:21;18.80;99.90
21298;DHT22;10808;48.010;11.326;2023-04-29T08:34:47;18.70;99.90
21298;DHT22;10808;48.010;11.326;2023-04-29T08:37:14;18.70;99.90
21298;DHT22;10808;48.010;11.326;2023-04-29T08:39:41;18.70;99.90
21298;DHT22;10808;48.010;11.326;2023-04-29T08:42:11;18.70;99.90
21298;DHT22;10808;48.010;11.326;2023-04-29T08:44:41;18.70;99.90
21298;DHT22;10808;48.010;11.326;2023-04-29T08:47:08;18.90;99.90
21298;DHT22;10808;48.010;11.326;2023-04-29T08:49:34;19.20;99.90
21298;DHT22;10808;48.010;11.326;2023-04-29T08:52:03;19.40;99.90
21298;DHT22;10808;48.010;11.326;2023-04-29T08:54:30;19.40;99.90
21298;DHT22;10808;48.010;11.326;2023-04-29T08:56:57;19.40;99.90
21298;DHT22;10808;48.010;11.326;2023-04-29T08:59:24;19.40;99.90
21298;DHT22;10808;48.010;11.326;2023-04-29T09:01:52;19.30;99.90
21298;DHT22;10808;48.010;11.326;2023-04-29T09:04:35;19.30;99.90
21298;DHT22;10808;48.010;11.326;2023-04-29T09:07:03;19.10;99.90
21298;DHT22;10808;48.010;11.326;2023-04-29T09:09:30;19.20;99.90
21298;DHT22;10808;48.010;11.326;2023-04-29T09:11:57;19.40;99.90
21298;DHT22;10808;48.010;11.326;2023-04-29T09:14:24;19.50;99.90
21298;DHT22;10808;48.010;11.326;2023-04-29T09:16:50;19.50;99.90
21298;DHT22;10808;48.010;11.326;2023-04-29T09:19:33;19.40;99.90
21298;DHT22;10808;48.010;11.326;2023-04-29T09:22:01;19.30;99.90
21298;DHT22;10808;48.010;11.326;2023-04-29T09:24:29;19.00;99.90
21298;DHT22;10808;48.010;11.326;2023-04-29T09:26:55;18.80;99.90
21298;DHT22;10808;48.010;11.326;2023-04-29T09:29:22;18.60;99.90
21298;DHT22;10808;48.010;11.326;2023-04-29T09:31:49;18.40;99.90
21298;DHT22;10808;48.010;11.326;2023-04-29T09:34:15;18.30;99.90
21298;DHT22;10808;48.010;11.326;2023-04-29T09:39:18;18.50;99.90
21298;DHT22;10808;48.010;11.326;2023-04-29T09:44:24;19.10;99.90
21298;DHT22;10808;48.010;11.326;2023-04-29T09:46:58;19.40;99.90
21298;DHT22;10808;48.010;11.326;2023-04-29T09:49:29;19.70;99.90
21298;DHT22;10808;48.010;11.326;2023-04-29T09:51:59;19.80;99.90
21298;DHT22;10808;48.010;11.326;2023-04-29T09:54:27;19.90;99.90
21298;DHT22;10808;48.010;11.326;2023-04-29T09:56:55;19.90;99.90
21298;DHT22;10808;48.010;11.326;2023-04-29T09:59:21;19.80;99.90
21298;DHT22;10808;48.010;11.326;2023-04-29T10:01:50;19.70;99.90
21298;DHT22;10808;48.010;11.326;2023-04-29T10:04:17;19.80;99.90
21298;DHT22;10808;48.010;11.326;2023-04-29T10:06:45;19.60;99.90
21298;DHT22;10808;48.010;11.326;2023-04-29T10:09:14;19.50;99.90
21298;DHT22;10808;48.010;11.326;2023-04-29T10:11:44;19.30;99.90
21298;DHT22;10808;48.010;11.326;2023-04-29T10:14:18;19.20;99.90
21298;DHT22;10808;48.010;11.326;2023-04-29T10:17:15;19.30;99.90
21298;DHT22;10808;48.010;11.326;2023-04-29T10:22:48;20.00;99.90
21298;DHT22;10808;48.010;11.326;2023-04-29T10:25:16;20.30;99.90
21298;DHT22;10808;48.010;11.326;2023-04-29T10:27:44;20.30;99.90
21298;DHT22;10808;48.010;11.326;2023-04-29T10:30:14;20.60;99.90
21298;DHT22;10808;48.010;11.326;2023-04-29T10:32:42;21.10;99.90
21298;DHT22;10808;48.010;11.326;2023-04-29T10:35:09;21.40;99.90
21298;DHT22;10808;48.010;11.326;2023-04-29T10:37:36;21.50;99.90
21298;DHT22;10808;48.010;11.326;2023-04-29T10:45:23;20.90;99.90
21298;DHT22;10808;48.010;11.326;2023-04-29T10:52:57;20.30;99.90
21298;DHT22;10808;48.010;11.326;2023-04-29T10:55:23;20.20;99.90
21298;DHT22;10808;48.010;11.326;2023-04-29T10:57:54;20.00;99.90
21298;DHT22;10808;48.010;11.326;2023-04-29T11:00:27;20.10;99.90
21298;DHT22;10808;48.010;11.326;2023-04-29T11:02:54;20.20;99.90
21298;DHT22;10808;48.010;11.326;2023-04-29T11:05:36;20.40;99.90
21298;DHT22;10808;48.010;11.326;2023-04-29T11:10:42;20.60;99.90
21298;DHT22;10808;48.010;11.326;2023-04-29T11:13:25;20.90;99.90
21298;DHT22;10808;48.010;11.326;2023-04-29T11:15:52;20.90;99.90
21298;DHT22;10808;48.010;11.326;2023-04-29T11:18:19;20.70;99.90
21298;DHT22;10808;48.010;11.326;2023-04-29T11:23:38;20.30;99.90
21298;DHT22;10808;48.010;11.326;2023-04-29T11:26:10;20.30;99.90
21298;DHT22;10808;48.010;11.326;2023-04-29T11:28:36;20.50;99.90
21298;DHT22;10808;48.010;11.326;2023-04-29T11:31:03;20.70;99.90
21298;DHT22;10808;48.010;11.326;2023-04-29T11:33:31;20.90;99.90
21298;DHT22;10808;48.010;11.326;2023-04-29T11:35:58;21.20;99.90
21298;DHT22;10808;48.010;11.326;2023-04-29T11:38:26;21.40;99.90
21298;DHT22;10808;48.010;11.326;2023-04-29T11:40:54;21.60;99.90
21298;DHT22;10808;48.010;11.326;2023-04-29T11:43:21;21.50;99.90
21298;DHT22;10808;48.010;11.326;2023-04-29T11:45:48;21.20;99.90
21298;DHT22;10808;48.010;11.326;2023-04-29T11:48:24;21.10;99.90
21298;DHT22;10808;48.010;11.326;2023-04-29T11:50:58;20.90;99.90
21298;DHT22;10808;48.010;11.326;2023-04-29T11:53:25;20.80;99.90
21298;DHT22;10808;48.010;11.326;2023-04-29T11:55:55;20.80;99.90
21298;DHT22;10808;48.010;11.326;2023-04-29T11:58:21;20.90;99.90
21298;DHT22;10808;48.010;11.326;2023-04-29T12:00:48;21.10;99.90
21298;DHT22;10808;48.010;11.326;2023-04-29T12:03:15;21.30;99.90
21298;DHT22;10808;48.010;11.326;2023-04-29T12:05:50;21.60;99.90
21298;DHT22;10808;48.010;11.326;2023-04-29T12:08:23;22.10;99.90
21298;DHT22;10808;48.010;11.326;2023-04-29T12:10:51;22.10;99.40
21298;DHT22;10808;48.010;11.326;2023-04-29T12:13:18;21.90;99.10
21298;DHT22;10808;48.010;11.326;2023-04-29T12:15:45;21.80;98.80
21298;DHT22;10808;48.010;11.326;2023-04-29T12:18:14;21.70;98.90
21298;DHT22;10808;48.010;11.326;2023-04-29T12:20:41;21.60;98.80
21298;DHT22;10808;48.010;11.326;2023-04-29T12:23:15;21.50;98.70
21298;DHT22;10808;48.010;11.326;2023-04-29T12:25:41;21.60;99.10
21298;DHT22;10808;48.010;11.326;2023-04-29T12:28:11;22.00;99.40
21298;DHT22;10808;48.010;11.326;2023-04-29T12:30:37;22.00;98.10
21298;DHT22;10808;48.010;11.326;2023-04-29T12:33:03;22.10;98.20
21298;DHT22;10808;48.010;11.326;2023-04-29T12:35:30;22.10;97.10
21298;DHT22;10808;48.010;11.326;2023-04-29T12:37:57;21.90;96.60
21298;DHT22;10808;48.010;11.326;2023-04-29T12:40:24;21.70;97.00
21298;DHT22;10808;48.010;11.326;2023-04-29T12:42:52;21.80;97.50
21298;DHT22;10808;48.010;11.326;2023-04-29T12:45:38;22.10;97.30
21298;DHT22;10808;48.010;11.326;2023-04-29T12:48:05;22.40;97.20
21298;DHT22;10808;48.010;11.326;2023-04-29T12:50:36;22.40;96.40
21298;DHT22;10808;48.010;11.326;2023-04-29T12:53:04;22.50;96.40
21298;DHT22;10808;48.010;11.326;2023-04-29T12:55:32;22.40;96.50
21298;DHT22;10808;48.010;11.326;2023-04-29T12:57:59;22.30;96.50
21298;DHT22;10808;48.010;11.326;2023-04-29T13:00:25;22.40;95.20
21298;DHT22;10808;48.010;11.326;2023-04-29T13:02:51;22.50;95.60
21298;DHT22;10808;48.010;11.326;2023-04-29T13:05:17;22.70;95.00
21298;DHT22;10808;48.010;11.326;2023-04-29T13:07:43;23.10;95.40
21298;DHT22;10808;48.010;11.326;2023-04-29T13:10:10;23.20;94.10
21298;DHT22;10808;48.010;11.326;2023-04-29T13:12:37;22.90;95.10
21298;DHT22;10808;48.010;11.326;2023-04-29T13:15:05;23.20;96.10
21298;DHT22;10808;48.010;11.326;2023-04-29T13:17:32;23.40;94.90
21298;DHT22;10808;48.010;11.326;2023-04-29T13:19:58;23.60;94.90
21298;DHT22;10808;48.010;11.326;2023-04-29T13:22:24;23.60;94.70
21298;DHT22;10808;48.010;11.326;2023-04-29T13:24:50;23.40;94.50
21298;DHT22;10808;48.010;11.326;2023-04-29T13:27:17;23.20;94.80
21298;DHT22;10808;48.010;11.326;2023-04-29T13:29:43;23.10;95.90
21298;DHT22;10808;48.010;11.326;2023-04-29T13:32:09;23.10;93.70
21298;DHT22;10808;48.010;11.326;2023-04-29T13:34:35;23.30;93.50
21298;DHT22;10808;48.010;11.326;2023-04-29T13:37:01;23.20;93.60
21298;DHT22;10808;48.010;11.326;2023-04-29T13:39:27;23.00;93.50
21298;DHT22;10808;48.010;11.326;2023-04-29T13:41:53;23.00;93.20
21298;DHT22;10808;48.010;11.326;2023-04-29T13:44:19;23.20;94.10
21298;DHT22;10808;48.010;11.326;2023-04-29T13:46:45;23.30;92.90
21298;DHT22;10808;48.010;11.326;2023-04-29T13:49:11;23.60;95.10
21298;DHT22;10808;48.010;11.326;2023-04-29T13:51:37;23.80;93.10
21298;DHT22;10808;48.010;11.326;2023-04-29T13:54:03;24.00;94.40
21298;DHT22;10808;48.010;11.326;2023-04-29T13:56:29;24.20;93.70
21298;DHT22;10808;48.010;11.326;2023-04-29T13:58:55;24.10;92.50
21298;DHT22;10808;48.010;11.326;2023-04-29T14:01:21;23.90;92.50
21298;DHT22;10808;48.010;11.326;2023-04-29T14:03:48;24.10;93.70
21298;DHT22;10808;48.010;11.326;2023-04-29T14:06:14;24.50;91.70
21298;DHT22;10808;48.010;11.326;2023-04-29T14:08:41;24.40;92.70
21298;DHT22;10808;48.010;11.326;2023-04-29T14:11:07;24.20;92.00
21298;DHT22;10808;48.010;11.326;2023-04-29T14:13:33;24.10;91.90
21298;DHT22;10808;48.010;11.326;2023-04-29T14:15:59;24.30;93.30
21298;DHT22;10808;48.010;11.326;2023-04-29T14:18:26;24.10;92.10
21298;DHT22;10808;48.010;11.326;2023-04-29T14:20:55;23.80;91.80
21298;DHT22;10808;48.010;11.326;2023-04-29T14:23:21;23.50;92.30
21298;DHT22;10808;48.010;11.326;2023-04-29T14:25:47;23.30;92.60
21298;DHT22;10808;48.010;11.326;2023-04-29T14:28:13;23.40;92.00
21298;DHT22;10808;48.010;11.326;2023-04-29T14:30:39;23.40;91.90
21298;DHT22;10808;48.010;11.326;2023-04-29T14:33:06;23.20;91.70
21298;DHT22;10808;48.010;11.326;2023-04-29T14:35:32;22.70;92.20
21298;DHT22;10808;48.010;11.326;2023-04-29T14:37:58;22.70;92.90
21298;DHT22;10808;48.010;11.326;2023-04-29T14:40:24;22.90;93.70
21298;DHT22;10808;48.010;11.326;2023-04-29T14:42:50;23.20;92.30
21298;DHT22;10808;48.010;11.326;2023-04-29T14:45:16;23.10;92.40
21298;DHT22;10808;48.010;11.326;2023-04-29T14:47:43;23.10;92.50
21298;DHT22;10808;48.010;11.326;2023-04-29T14:50:09;23.30;92.50
21298;DHT22;10808;48.010;11.326;2023-04-29T14:52:35;23.60;92.60
21298;DHT22;10808;48.010;11.326;2023-04-29T14:55:01;23.80;91.40
21298;DHT22;10808;48.010;11.326;2023-04-29T14:57:27;23.90;92.90
21298;DHT22;10808;48.010;11.326;2023-04-29T14:59:55;23.90;91.20
21298;DHT22;10808;48.010;11.326;2023-04-29T15:02:21;24.00;91.20
21298;DHT22;10808;48.010;11.326;2023-04-29T15:04:47;24.00;91.70
21298;DHT22;10808;48.010;11.326;2023-04-29T15:07:14;23.80;90.50
21298;DHT22;10808;48.010;11.326;2023-04-29T15:09:41;23.60;90.80
21298;DHT22;10808;48.010;11.326;2023-04-29T15:12:19;23.40;91.20
21298;DHT22;10808;48.010;11.326;2023-04-29T15:14:45;23.60;92.60
21298;DHT22;10808;48.010;11.326;2023-04-29T15:17:12;23.90;91.80
21298;DHT22;10808;48.010;11.326;2023-04-29T15:19:38;24.10;92.80
21298;DHT22;10808;48.010;11.326;2023-04-29T15:22:04;24.40;92.60
21298;DHT22;10808;48.010;11.326;2023-04-29T15:24:30;24.50;90.80
21298;DHT22;10808;48.010;11.326;2023-04-29T15:26:56;24.20;90.20
21298;DHT22;10808;48.010;11.326;2023-04-29T15:29:22;24.20;91.30
21298;DHT22;10808;48.010;11.326;2023-04-29T15:31:49;24.20;90.10
21298;DHT22;10808;48.010;11.326;2023-04-29T15:34:15;24.40;91.00
21298;DHT22;10808;48.010;11.326;2023-04-29T15:36:41;24.70;91.00
21298;DHT22;10808;48.010;11.326;2023-04-29T15:39:07;24.90;91.40
21298;DHT22;10808;48.010;11.326;2023-04-29T15:41:36;24.90;90.00